Time;durP1;ratioP1;P1;durP2;ratioP2;P2;SDS_P1;SDS_P2;PMS_P1;PMS_P2;Temp;Humidity;BMP_temperature;BMP_pressure;BME280_temperature;BME280_humidity;BME280_pressure;Samples;Min_cycle;Max_cycle;Signal;HPM_P1;HPM_P2
2022/07/16 00:01:36;;;;;;;3.37;2.00;;;14.60;99.90;;;;;;4244365;27;20237;-79
2022/07/16 00:03:38;;;;;;;3.53;2.60;;;14.50;99.90;;;;;;4250458;27;20282;-76
2022/07/16 00:05:40;;;;;;;3.37;2.23;;;14.50;99.90;;;;;;4259868;27;20231;-76
2022/07/16 00:07:42;;;;;;;3.30;2.10;;;14.50;99.90;;;;;;4250563;27;20258;-76
2022/07/16 00:09:44;;;;;;;4.77;1.97;;;14.40;99.90;;;;;;4242409;27;20224;-77
2022/07/16 00:11:46;;;;;;;3.97;1.70;;;14.40;99.90;;;;;;4261624;27;20268;-76
2022/07/16 00:13:49;;;;;;;2.50;1.67;;;14.40;99.90;;;;;;4240873;27;20200;-77
2022/07/16 00:15:54;;;;;;;2.03;1.30;;;14.40;99.90;;;;;;4263134;27;20247;-76
2022/07/16 00:20:12;;;;;;;2.37;1.33;;;14.40;99.90;;;;;;4245607;27;20218;-77
2022/07/16 00:22:14;;;;;;;2.50;1.33;;;14.40;99.90;;;;;;4237970;27;20771;-77
2022/07/16 00:24:16;;;;;;;2.60;1.30;;;14.40;99.90;;;;;;4237180;27;20286;-77
2022/07/16 00:26:18;;;;;;;1.43;1.10;;;14.40;99.90;;;;;;4265577;27;20203;-76
2022/07/16 00:28:20;;;;;;;1.83;1.23;;;14.40;99.90;;;;;;4246816;27;20231;-76
2022/07/16 00:30:22;;;;;;;4.40;1.10;;;14.40;99.90;;;;;;4262592;27;20229;-76
2022/07/16 00:32:25;;;;;;;2.47;1.10;;;14.30;99.90;;;;;;4263853;27;20297;-79
2022/07/16 00:34:27;;;;;;;2.50;1.20;;;14.40;99.90;;;;;;4258183;27;20263;-79
2022/07/16 00:36:29;;;;;;;1.53;1.00;;;14.40;99.90;;;;;;4260635;27;20253;-79
2022/07/16 00:38:31;;;;;;;1.50;1.00;;;14.20;99.90;;;;;;4254516;27;20326;-79
2022/07/16 00:40:35;;;;;;;1.20;0.80;;;14.30;99.90;;;;;;4249130;27;20294;-79
2022/07/16 00:42:37;;;;;;;1.43;0.90;;;14.40;99.90;;;;;;4253150;27;20601;-79
2022/07/16 00:44:39;;;;;;;2.70;1.20;;;14.30;99.90;;;;;;4254373;27;20214;-79
2022/07/16 00:46:41;;;;;;;2.23;1.10;;;14.30;99.90;;;;;;4262020;27;20253;-79
2022/07/16 00:48:46;;;;;;;2.97;1.07;;;14.30;99.90;;;;;;4255865;27;20238;-79
2022/07/16 00:50:48;;;;;;;1.60;1.00;;;14.30;99.90;;;;;;4255136;27;20290;-79
2022/07/16 00:52:50;;;;;;;2.57;1.03;;;14.30;99.90;;;;;;4254603;27;20685;-79
2022/07/16 00:54:52;;;;;;;1.23;1.00;;;14.30;99.90;;;;;;4258219;27;20734;-79
2022/07/16 00:56:54;;;;;;;1.30;0.70;;;14.30;99.90;;;;;;4258696;27;20218;-79
2022/07/16 00:58:56;;;;;;;1.80;0.80;;;14.30;99.90;;;;;;4252058;27;20326;-79
2022/07/16 01:00:58;;;;;;;2.80;1.20;;;14.30;99.90;;;;;;4257378;27;20207;-79
2022/07/16 01:03:01;;;;;;;2.73;1.10;;;14.30;99.90;;;;;;4256839;27;20223;-79
2022/07/16 01:05:05;;;;;;;1.90;1.00;;;14.30;99.90;;;;;;4260504;27;20229;-79
2022/07/16 01:07:08;;;;;;;2.33;1.10;;;14.20;99.90;;;;;;4250551;27;20210;-79
2022/07/16 01:09:11;;;;;;;2.80;1.30;;;14.30;99.90;;;;;;4249024;27;20235;-79
2022/07/16 01:11:14;;;;;;;5.13;1.70;;;14.20;99.90;;;;;;4258323;27;20302;-79
2022/07/16 01:13:18;;;;;;;3.00;1.40;;;14.30;99.90;;;;;;4252377;27;20290;-79
2022/07/16 01:15:20;;;;;;;2.50;1.33;;;14.20;99.90;;;;;;4257283;27;20298;-79
2022/07/16 01:17:22;;;;;;;2.20;1.10;;;14.20;99.90;;;;;;4261313;27;20202;-79
2022/07/16 01:19:23;;;;;;;2.30;1.20;;;14.20;99.90;;;;;;4252724;27;20303;-79
2022/07/16 01:21:27;;;;;;;1.47;0.90;;;14.20;99.90;;;;;;4260572;27;20290;-79
2022/07/16 01:23:30;;;;;;;2.40;1.07;;;14.20;99.90;;;;;;4251137;27;20235;-79
2022/07/16 01:25:32;;;;;;;1.97;1.00;;;14.20;99.90;;;;;;4254556;27;20203;-79
2022/07/16 01:27:34;;;;;;;2.37;0.93;;;14.20;99.90;;;;;;4252819;27;20207;-79
2022/07/16 01:29:36;;;;;;;1.30;0.80;;;14.20;99.90;;;;;;4256010;27;20208;-79
2022/07/16 01:31:38;;;;;;;1.73;1.00;;;14.10;99.90;;;;;;4251256;27;20708;-79
2022/07/16 01:33:42;;;;;;;0.87;0.70;;;14.10;99.90;;;;;;4253731;27;20710;-79
2022/07/16 01:35:44;;;;;;;1.70;0.97;;;14.10;99.90;;;;;;4256086;27;20554;-79
2022/07/16 01:37:45;;;;;;;1.70;1.00;;;14.10;99.90;;;;;;4254849;27;20280;-79
2022/07/16 01:39:49;;;;;;;1.57;0.70;;;14.10;99.90;;;;;;4263145;27;20643;-79
2022/07/16 01:41:52;;;;;;;2.33;0.90;;;14.10;99.90;;;;;;4259355;27;20209;-79
2022/07/16 01:43:54;;;;;;;1.50;1.00;;;14.10;99.90;;;;;;4270943;27;20253;-79
2022/07/16 01:46:46;;;;;;;0.97;0.80;;;14.10;99.90;;;;;;4263462;27;20223;-79
2022/07/16 01:49:38;;;;;;;0.90;0.60;;;14.10;99.90;;;;;;4261883;27;20667;-79
2022/07/16 01:52:30;;;;;;;0.93;0.80;;;14.10;99.90;;;;;;4257502;27;20199;-79
2022/07/16 01:55:22;;;;;;;1.47;0.83;;;14.10;99.90;;;;;;4257103;27;20212;-79
2022/07/16 01:58:14;;;;;;;2.17;0.97;;;14.10;99.90;;;;;;4255175;27;20210;-79
2022/07/16 02:01:07;;;;;;;0.90;0.80;;;14.10;99.90;;;;;;4250369;27;20218;-79
2022/07/16 02:04:00;;;;;;;1.50;0.90;;;14.10;99.90;;;;;;4256919;27;20877;-79
2022/07/16 02:06:52;;;;;;;3.20;1.10;;;14.00;99.90;;;;;;4256508;27;20302;-79
2022/07/16 02:09:44;;;;;;;3.03;1.10;;;14.00;99.90;;;;;;4255505;27;20325;-79
2022/07/16 02:12:36;;;;;;;3.37;1.40;;;14.00;99.90;;;;;;4240200;27;20260;-79
2022/07/16 02:15:28;;;;;;;3.30;1.00;;;13.90;99.90;;;;;;4233657;27;20715;-79
2022/07/16 02:18:20;;;;;;;2.47;1.00;;;13.90;99.90;;;;;;4240717;27;20252;-79
2022/07/16 02:21:12;;;;;;;2.10;0.90;;;13.90;99.90;;;;;;4238925;27;20254;-79
2022/07/16 02:24:04;;;;;;;2.23;1.10;;;13.90;99.90;;;;;;4240561;27;20606;-79
2022/07/16 02:26:56;;;;;;;1.83;0.90;;;13.90;99.90;;;;;;4236833;27;20756;-79
2022/07/16 02:29:48;;;;;;;1.73;1.00;;;13.80;99.90;;;;;;4245627;27;20263;-79
2022/07/16 02:32:41;;;;;;;1.63;0.90;;;13.80;99.90;;;;;;4242521;27;20298;-79
2022/07/16 04:42:14;;;;;;;2.10;0.90;;;14.00;99.90;;;;;;4243061;27;20632;-79
2022/07/16 04:44:15;;;;;;;1.97;0.90;;;14.00;99.90;;;;;;4241480;27;20291;-79
2022/07/16 04:46:17;;;;;;;3.00;1.10;;;14.00;99.90;;;;;;4244674;27;20199;-79
2022/07/16 04:48:19;;;;;;;2.87;1.00;;;14.10;99.90;;;;;;4237429;27;20324;-78
2022/07/16 04:50:21;;;;;;;2.67;0.87;;;14.10;99.90;;;;;;4215792;28;20669;-79
2022/07/16 04:52:23;;;;;;;2.33;0.87;;;14.10;99.90;;;;;;4237182;27;20623;-78
2022/07/16 04:54:25;;;;;;;1.50;0.90;;;14.10;99.90;;;;;;4238421;27;20200;-79
2022/07/16 04:56:27;;;;;;;3.13;1.00;;;14.00;99.90;;;;;;4246209;27;20569;-77
2022/07/16 04:58:30;;;;;;;4.50;1.20;;;13.80;99.90;;;;;;4235892;27;20224;-77
2022/07/16 05:00:32;;;;;;;1.93;0.90;;;13.70;99.90;;;;;;4238010;27;20207;-77
2022/07/16 05:04:54;;;;;;;5.00;1.30;;;13.40;99.90;;;;;;4241421;27;20677;-77
2022/07/16 05:06:56;;;;;;;4.20;1.37;;;13.20;99.90;;;;;;4242269;27;20202;-78
2022/07/16 05:08:58;;;;;;;5.93;1.10;;;13.10;99.90;;;;;;4242916;27;20589;-77
2022/07/16 05:11:00;;;;;;;3.77;1.40;;;13.00;99.90;;;;;;4245617;27;20211;-77
2022/07/16 05:13:03;;;;;;;1.90;1.33;;;12.90;99.90;;;;;;4239448;27;20571;-77
2022/07/16 05:15:08;;;;;;;3.87;1.30;;;12.90;99.90;;;;;;4227847;28;20237;-76
2022/07/16 05:17:10;;;;;;;3.00;1.40;;;12.90;99.90;;;;;;4237134;27;20205;-78
2022/07/16 05:19:12;;;;;;;4.03;1.50;;;12.80;99.90;;;;;;4230609;28;20252;-77
2022/07/16 05:21:13;;;;;;;3.77;1.50;;;12.80;99.90;;;;;;4226181;28;20608;-77
2022/07/16 05:23:18;;;;;;;3.67;1.90;;;12.90;99.90;;;;;;4242134;27;20301;-78
2022/07/16 05:25:20;;;;;;;3.67;1.57;;;12.90;99.90;;;;;;4247601;27;20743;-77
2022/07/16 05:27:22;;;;;;;7.93;2.60;;;12.90;99.90;;;;;;4241313;27;20298;-78
2022/07/16 05:29:24;;;;;;;4.73;1.60;;;12.90;99.90;;;;;;4234051;27;20239;-77
2022/07/16 05:31:28;;;;;;;3.57;1.40;;;12.90;99.90;;;;;;4243972;27;20208;-77
2022/07/16 05:33:30;;;;;;;4.17;1.50;;;12.90;99.90;;;;;;4241346;27;20226;-78
2022/07/16 05:35:32;;;;;;;3.03;1.27;;;12.90;99.90;;;;;;4240654;27;20237;-77
2022/07/16 05:37:33;;;;;;;2.83;1.30;;;12.90;99.90;;;;;;4246949;27;20244;-78
2022/07/16 05:39:35;;;;;;;2.37;1.40;;;12.90;99.90;;;;;;4248388;27;20217;-77
2022/07/16 05:41:37;;;;;;;1.70;1.20;;;13.00;99.90;;;;;;4223615;28;20207;-77
2022/07/16 05:43:39;;;;;;;2.87;1.37;;;13.00;99.90;;;;;;4243235;27;20251;-77
2022/07/16 05:45:41;;;;;;;2.40;1.30;;;13.00;99.90;;;;;;4235095;27;20322;-77
2022/07/16 05:47:44;;;;;;;2.80;1.30;;;13.00;99.90;;;;;;4220251;28;20270;-78
2022/07/16 05:49:46;;;;;;;1.70;1.20;;;13.10;99.90;;;;;;4238728;27;20294;-78
2022/07/16 05:51:48;;;;;;;4.20;1.40;;;13.10;99.90;;;;;;4240841;27;20283;-78
2022/07/16 05:53:50;;;;;;;2.83;1.20;;;13.20;99.90;;;;;;4230567;28;20204;-78
2022/07/16 05:55:52;;;;;;;3.20;1.17;;;13.20;99.90;;;;;;4243617;27;20210;-78
2022/07/16 05:57:54;;;;;;;4.50;1.33;;;13.20;99.90;;;;;;4243141;27;20418;-77
2022/07/16 05:59:56;;;;;;;7.83;1.60;;;13.20;99.90;;;;;;4247282;27;20230;-77
2022/07/16 06:01:58;;;;;;;2.70;1.40;;;13.30;99.90;;;;;;4219212;28;20208;-77
2022/07/16 06:04:01;;;;;;;1.87;1.23;;;13.30;99.90;;;;;;4237067;27;20223;-77
2022/07/16 06:06:03;;;;;;;3.57;1.50;;;13.40;99.90;;;;;;4242504;27;20283;-78
2022/07/16 06:08:06;;;;;;;5.37;1.50;;;13.50;99.90;;;;;;4226471;28;20231;-77
2022/07/16 06:10:09;;;;;;;1.63;1.03;;;13.50;99.90;;;;;;4224875;28;20253;-77
2022/07/16 06:12:10;;;;;;;2.07;1.20;;;13.60;99.90;;;;;;4225671;28;20217;-77
2022/07/16 06:14:15;;;;;;;3.50;1.33;;;13.70;99.90;;;;;;4234692;27;20576;-77
2022/07/16 06:16:17;;;;;;;1.87;1.00;;;13.70;99.90;;;;;;4244628;27;20235;-77
2022/07/16 06:18:19;;;;;;;1.60;1.10;;;13.80;99.90;;;;;;4243414;27;20227;-77
2022/07/16 06:20:22;;;;;;;2.93;1.40;;;13.90;99.90;;;;;;4219312;28;20690;-77
2022/07/16 06:22:25;;;;;;;2.47;1.20;;;13.90;99.90;;;;;;4236617;27;20214;-77
2022/07/16 06:24:27;;;;;;;3.73;1.30;;;14.00;99.90;;;;;;4232471;27;20273;-77
2022/07/16 06:26:29;;;;;;;3.03;1.10;;;14.10;99.90;;;;;;4241256;27;20721;-77
2022/07/16 06:28:31;;;;;;;2.73;1.07;;;14.20;99.90;;;;;;4236784;27;20301;-77
2022/07/16 06:30:32;;;;;;;1.93;1.00;;;14.20;99.90;;;;;;4219625;27;20238;-77
2022/07/16 06:32:34;;;;;;;3.67;1.20;;;14.30;99.90;;;;;;4238898;27;21031;-77
2022/07/16 06:34:36;;;;;;;1.27;1.00;;;14.40;99.90;;;;;;4225230;28;20197;-77
2022/07/16 06:36:40;;;;;;;3.30;1.20;;;14.50;99.90;;;;;;4240960;28;20711;-78
2022/07/16 06:38:42;;;;;;;3.57;1.33;;;14.50;99.90;;;;;;4222384;28;20262;-77
2022/07/16 06:40:44;;;;;;;2.57;1.20;;;14.60;99.90;;;;;;4221284;28;20293;-77
2022/07/16 06:42:46;;;;;;;2.97;1.20;;;14.60;99.90;;;;;;4228886;28;20229;-78
2022/07/16 06:44:48;;;;;;;2.70;1.10;;;14.70;99.90;;;;;;4232736;28;20856;-77
2022/07/16 06:46:50;;;;;;;1.93;1.20;;;14.80;99.90;;;;;;4239411;28;20284;-77
2022/07/16 06:48:52;;;;;;;4.57;1.20;;;14.90;99.90;;;;;;4245705;28;20314;-77
2022/07/16 06:50:54;;;;;;;3.33;0.93;;;15.00;99.90;;;;;;4228178;28;20688;-77
2022/07/16 06:52:57;;;;;;;2.50;1.20;;;15.00;99.90;;;;;;4239379;28;20216;-77
2022/07/16 06:54:59;;;;;;;3.10;0.93;;;15.10;99.90;;;;;;4236097;27;20197;-77
2022/07/16 06:57:01;;;;;;;2.20;1.17;;;15.20;99.90;;;;;;4244399;27;20297;-77
2022/07/16 06:59:03;;;;;;;3.17;1.40;;;15.30;99.90;;;;;;4245779;27;20233;-77
2022/07/16 07:01:05;;;;;;;2.63;1.10;;;15.40;99.90;;;;;;4245286;27;20293;-77
2022/07/16 07:03:07;;;;;;;2.83;1.10;;;15.40;99.90;;;;;;4243921;27;20225;-77
2022/07/16 07:05:09;;;;;;;1.73;0.90;;;15.60;99.90;;;;;;4244897;27;20222;-77
2022/07/16 07:07:11;;;;;;;2.57;1.63;;;15.60;99.90;;;;;;4224614;28;20208;-78
2022/07/16 07:09:15;;;;;;;5.00;1.27;;;15.80;99.90;;;;;;4229412;28;20744;-78
2022/07/16 07:11:17;;;;;;;1.60;1.20;;;15.90;99.90;;;;;;4244821;27;20217;-77
2022/07/16 07:13:19;;;;;;;3.57;1.23;;;15.90;99.90;;;;;;4231974;27;20201;-77
2022/07/16 07:15:21;;;;;;;3.67;1.33;;;16.00;99.90;;;;;;4230622;28;20235;-78
2022/07/16 07:17:23;;;;;;;1.30;0.90;;;16.10;99.90;;;;;;4249239;27;20676;-77
2022/07/16 07:19:25;;;;;;;2.70;1.00;;;16.20;99.90;;;;;;4248248;27;20641;-77
2022/07/16 07:21:27;;;;;;;1.47;0.90;;;16.30;99.90;;;;;;4230964;27;20204;-77
2022/07/16 07:23:29;;;;;;;1.67;0.97;;;16.60;99.90;;;;;;4243227;27;20200;-77
2022/07/16 07:25:32;;;;;;;3.97;1.00;;;16.40;99.90;;;;;;4247158;27;20229;-77
2022/07/16 07:27:34;;;;;;;2.87;0.90;;;16.50;99.90;;;;;;4245600;27;20200;-77
2022/07/16 07:29:37;;;;;;;2.60;1.00;;;16.60;99.90;;;;;;4249560;27;20204;-77
2022/07/16 07:31:39;;;;;;;4.30;1.03;;;16.70;99.90;;;;;;4245503;27;20283;-78
2022/07/16 07:33:41;;;;;;;1.17;0.80;;;16.70;99.90;;;;;;4242881;27;20199;-77
2022/07/16 07:35:43;;;;;;;2.00;0.97;;;16.80;99.90;;;;;;4228454;28;20696;-77
2022/07/16 07:37:45;;;;;;;3.33;1.10;;;16.90;99.90;;;;;;4243605;27;20701;-78
2022/07/16 07:39:47;;;;;;;5.33;1.20;;;17.00;99.90;;;;;;4229612;28;20223;-78
2022/07/16 07:41:50;;;;;;;1.40;0.90;;;17.10;99.90;;;;;;4243888;27;20200;-78
2022/07/16 07:43:52;;;;;;;2.33;1.03;;;17.20;99.90;;;;;;4235991;27;20220;-78
2022/07/16 07:45:54;;;;;;;2.30;1.10;;;17.30;99.90;;;;;;4244441;27;20199;-78
2022/07/16 07:47:56;;;;;;;2.80;1.10;;;17.30;99.90;;;;;;4243473;27;20580;-78
2022/07/16 07:49:58;;;;;;;2.93;1.13;;;17.40;99.90;;;;;;4238925;27;20385;-78
2022/07/16 07:52:01;;;;;;;3.47;1.00;;;17.50;99.90;;;;;;4245767;27;20232;-78
2022/07/16 07:54:03;;;;;;;3.30;1.30;;;17.50;99.90;;;;;;4224000;28;20987;-78
2022/07/16 07:56:05;;;;;;;2.43;1.10;;;17.60;99.90;;;;;;4244705;27;20232;-78
2022/07/16 07:58:09;;;;;;;2.53;0.87;;;17.60;99.60;;;;;;4240046;27;20306;-78
2022/07/16 08:00:12;;;;;;;2.57;1.00;;;17.70;99.90;;;;;;4241671;27;20644;-78
2022/07/16 08:02:14;;;;;;;2.07;1.00;;;17.70;99.90;;;;;;4238002;27;20622;-78
2022/07/16 08:04:16;;;;;;;3.80;0.90;;;17.70;99.90;;;;;;4236577;27;20223;-79
2022/07/16 08:06:18;;;;;;;2.17;1.17;;;17.80;99.90;;;;;;4223788;28;20239;-79
2022/07/16 08:08:20;;;;;;;3.07;1.10;;;17.80;97.60;;;;;;4245125;27;20609;-78
2022/07/16 08:10:22;;;;;;;3.87;0.93;;;17.90;99.50;;;;;;4247276;27;20564;-79
2022/07/16 08:12:24;;;;;;;2.23;1.07;;;17.90;99.90;;;;;;4224892;28;20209;-72
2022/07/16 08:14:27;;;;;;;2.27;1.20;;;18.00;99.90;;;;;;4244481;27;20196;-72
2022/07/16 08:16:30;;;;;;;2.10;1.03;;;18.00;98.80;;;;;;4225800;28;20201;-75
2022/07/16 08:18:32;;;;;;;3.20;1.30;;;18.00;98.80;;;;;;4245823;27;20296;-74
2022/07/16 08:20:34;;;;;;;2.37;1.33;;;18.00;96.70;;;;;;4241212;27;20243;-74
2022/07/16 08:22:36;;;;;;;1.87;1.20;;;18.10;96.20;;;;;;4215380;28;20595;-71
2022/07/16 08:26:57;;;;;;;6.47;1.10;;;18.00;96.60;;;;;;4241013;27;20275;-72
2022/07/16 08:28:59;;;;;;;1.90;1.03;;;18.10;99.60;;;;;;4243741;27;20216;-79
2022/07/16 08:31:02;;;;;;;2.93;1.57;;;18.00;99.90;;;;;;4244667;27;20284;-77
2022/07/16 08:33:04;;;;;;;1.20;1.10;;;18.10;99.90;;;;;;4245590;27;20207;-79
2022/07/16 08:35:06;;;;;;;2.40;1.13;;;18.00;99.90;;;;;;4238498;27;20577;-79
2022/07/16 08:37:10;;;;;;;3.83;1.10;;;18.00;99.90;;;;;;4242837;27;20208;-80
2022/07/16 08:39:12;;;;;;;6.03;1.40;;;17.90;99.90;;;;;;4247817;27;20227;-79
2022/07/16 08:41:15;;;;;;;4.27;1.50;;;17.80;99.90;;;;;;4246931;27;20656;-77
2022/07/16 08:43:17;;;;;;;6.00;1.77;;;17.50;99.90;;;;;;4246191;27;20608;-78
2022/07/16 08:45:22;;;;;;;2.73;1.40;;;17.30;99.90;;;;;;4245677;27;20219;-78
2022/07/16 08:47:27;;;;;;;2.27;1.40;;;17.00;99.90;;;;;;4224820;28;20303;-78
2022/07/16 08:49:31;;;;;;;2.20;1.50;;;16.90;99.90;;;;;;4219157;28;20631;-78
2022/07/16 08:51:36;;;;;;;4.30;1.63;;;16.90;99.90;;;;;;4241091;27;20201;-77
2022/07/16 08:53:40;;;;;;;4.10;1.60;;;16.80;99.90;;;;;;4244837;27;20234;-77
2022/07/16 08:55:43;;;;;;;2.40;1.53;;;16.80;99.90;;;;;;4224872;28;20219;-77
2022/07/16 08:57:48;;;;;;;2.90;1.57;;;16.80;99.90;;;;;;4238212;27;20233;-77
2022/07/16 08:59:51;;;;;;;3.70;1.70;;;16.80;99.90;;;;;;4246314;27;20261;-77
2022/07/16 09:01:52;;;;;;;2.40;1.93;;;16.80;99.90;;;;;;4238276;27;20294;-77
2022/07/16 09:03:56;;;;;;;1.97;1.33;;;16.90;99.90;;;;;;4244543;27;20218;-77
2022/07/16 09:05:59;;;;;;;2.40;1.70;;;16.90;99.90;;;;;;4241857;27;20275;-79
2022/07/16 09:08:01;;;;;;;6.20;1.80;;;17.00;99.90;;;;;;4220830;28;20223;-78
2022/07/16 09:10:03;;;;;;;2.87;1.70;;;17.10;99.90;;;;;;4244390;27;20676;-75
2022/07/16 09:12:05;;;;;;;1.90;1.60;;;17.20;99.90;;;;;;4247339;27;20200;-78
2022/07/16 09:14:09;;;;;;;2.20;1.57;;;17.30;99.90;;;;;;4247319;27;20208;-78
2022/07/16 09:16:28;;;;;;;2.60;1.80;;;17.20;99.90;;;;;;4246049;27;20247;-79
2022/07/16 09:18:30;;;;;;;3.20;1.90;;;17.20;99.90;;;;;;4243575;27;20216;-78
2022/07/16 09:20:33;;;;;;;3.80;1.93;;;17.20;99.90;;;;;;4248558;27;20206;-77
2022/07/16 09:22:38;;;;;;;2.60;1.70;;;17.20;99.90;;;;;;4246764;27;20279;-77
2022/07/16 09:24:42;;;;;;;2.60;1.67;;;17.20;99.90;;;;;;4247094;27;20690;-78
2022/07/16 09:26:44;;;;;;;2.60;1.50;;;17.20;99.90;;;;;;4224419;28;20292;-77
2022/07/16 09:28:48;;;;;;;2.00;1.40;;;17.20;99.90;;;;;;4245127;27;20219;-77
2022/07/16 09:30:51;;;;;;;2.87;1.33;;;17.20;99.90;;;;;;4226712;28;20201;-77
2022/07/16 09:32:53;;;;;;;1.97;1.40;;;17.30;99.90;;;;;;4249260;27;20266;-77
2022/07/16 09:35:02;;;;;;;2.07;1.20;;;17.40;99.90;;;;;;4244423;27;20206;-79
2022/07/16 09:37:07;;;;;;;1.43;1.10;;;17.50;99.90;;;;;;4238525;27;20215;-77
2022/07/16 09:39:09;;;;;;;3.30;1.30;;;17.60;99.90;;;;;;4239050;27;20719;-79
2022/07/16 09:41:13;;;;;;;2.70;1.50;;;17.70;99.90;;;;;;4214941;28;20239;-77
2022/07/16 09:43:20;;;;;;;3.93;1.50;;;17.80;99.90;;;;;;4240003;27;20565;-77
2022/07/16 09:45:22;;;;;;;2.70;1.60;;;17.80;99.90;;;;;;4230417;28;20891;-78
2022/07/16 09:47:28;;;;;;;1.97;1.40;;;17.90;99.90;;;;;;4233852;27;20271;-76
2022/07/16 09:49:32;;;;;;;2.60;1.50;;;18.00;99.90;;;;;;4247255;27;20274;-78
2022/07/16 09:51:39;;;;;;;2.90;1.30;;;18.10;99.90;;;;;;4246177;27;20206;-77
2022/07/16 09:53:44;;;;;;;2.43;1.33;;;18.10;99.90;;;;;;4218511;28;20215;-78
2022/07/16 09:55:58;;;;;;;4.63;1.33;;;18.20;99.90;;;;;;4247603;27;20200;-77
2022/07/16 09:58:03;;;;;;;3.70;1.30;;;18.30;99.90;;;;;;4240314;27;20286;-78
2022/07/16 10:00:09;;;;;;;1.73;1.20;;;18.30;99.90;;;;;;4247576;27;20241;-78
2022/07/16 10:02:11;;;;;;;2.50;1.10;;;18.30;99.90;;;;;;4246756;27;20233;-79
2022/07/16 10:04:13;;;;;;;3.10;1.10;;;18.40;99.90;;;;;;4226397;28;20717;-79
2022/07/16 10:06:15;;;;;;;1.40;1.10;;;18.40;99.90;;;;;;4222507;28;20240;-77
2022/07/16 10:08:18;;;;;;;2.53;1.20;;;18.40;99.90;;;;;;4237887;27;20233;-79
2022/07/16 10:10:21;;;;;;;1.93;1.00;;;18.50;99.90;;;;;;4221772;28;20672;-79
2022/07/16 10:12:23;;;;;;;1.20;1.00;;;18.60;99.90;;;;;;4241857;27;20203;-80
2022/07/16 10:14:26;;;;;;;1.70;0.90;;;18.70;99.90;;;;;;4217750;28;20206;-79
2022/07/16 10:16:41;;;;;;;1.87;0.90;;;18.80;99.90;;;;;;4237009;27;20209;-79
2022/07/16 10:18:46;;;;;;;1.40;1.13;;;18.90;99.90;;;;;;4236247;27;20258;-78
2022/07/16 10:21:02;;;;;;;1.03;0.80;;;18.90;99.90;;;;;;4244918;27;20236;-78
2022/07/16 10:23:07;;;;;;;1.93;1.00;;;18.90;99.90;;;;;;4234777;27;20242;-79
2022/07/16 10:25:13;;;;;;;1.77;0.97;;;19.00;99.90;;;;;;4222812;28;20688;-78
2022/07/16 10:27:24;;;;;;;1.20;0.80;;;19.00;99.90;;;;;;4218964;28;20295;-78
2022/07/16 10:29:42;;;;;;;0.87;0.70;;;19.00;99.90;;;;;;4236365;27;20578;-79
2022/07/16 10:32:27;;;;;;;1.63;0.70;;;18.90;99.90;;;;;;4240925;27;20679;-78
2022/07/16 10:34:39;;;;;;;0.90;0.87;;;18.90;99.90;;;;;;4239603;27;20735;-79
2022/07/16 10:36:47;;;;;;;0.97;0.90;;;19.00;99.90;;;;;;4231572;27;20919;-79
2022/07/16 10:39:05;;;;;;;2.20;0.93;;;19.00;99.90;;;;;;4226024;28;20260;-78
2022/07/16 10:41:10;;;;;;;1.30;0.80;;;19.00;99.90;;;;;;4235772;27;20690;-78
2022/07/16 10:43:17;;;;;;;3.57;0.80;;;19.00;99.60;;;;;;4225649;28;20639;-80
2022/07/16 10:45:19;;;;;;;3.77;0.90;;;19.20;99.90;;;;;;4237171;28;20216;-78
2022/07/16 10:47:21;;;;;;;1.50;1.00;;;19.30;98.30;;;;;;4233751;28;20662;-78
2022/07/16 10:49:23;;;;;;;1.80;1.10;;;19.40;96.40;;;;;;4245380;28;20655;-79
2022/07/16 10:51:27;;;;;;;0.80;0.77;;;19.50;96.20;;;;;;4238392;28;20606;-78
2022/07/16 10:53:29;;;;;;;0.77;0.70;;;19.60;96.10;;;;;;4240225;28;20208;-78
2022/07/16 10:55:33;;;;;;;2.07;0.77;;;19.70;86.40;;;;;;4243491;27;20280;-79
2022/07/16 10:57:37;;;;;;;1.87;0.90;;;19.90;90.00;;;;;;4235577;28;20584;-81
2022/07/16 10:59:41;;;;;;;1.90;1.00;;;20.10;66.70;;;;;;4237378;28;20692;-76
2022/07/16 11:01:45;;;;;;;1.10;1.00;;;20.20;67.80;;;;;;4245915;28;20275;-79
2022/07/16 11:03:51;;;;;;;3.00;1.03;;;20.30;66.80;;;;;;4226678;28;20239;-77
2022/07/16 11:05:55;;;;;;;1.73;1.00;;;20.50;59.10;;;;;;4243077;28;20259;-81
2022/07/16 11:08:07;;;;;;;2.33;0.73;;;20.60;57.60;;;;;;4221065;28;20268;-78
2022/07/16 11:10:10;;;;;;;2.87;0.97;;;20.70;58.90;;;;;;4218699;28;20215;-76
2022/07/16 11:12:15;;;;;;;1.67;0.83;;;20.70;54.80;;;;;;4237448;28;20199;-76
2022/07/16 11:14:17;;;;;;;2.47;0.90;;;20.80;53.20;;;;;;4246094;28;20682;-76
2022/07/16 11:16:20;;;;;;;2.40;0.80;;;20.80;51.60;;;;;;4246767;28;20282;-76
2022/07/16 11:18:36;;;;;;;1.63;0.93;;;20.90;51.00;;;;;;4246611;28;20281;-78
2022/07/16 11:20:38;;;;;;;1.70;1.00;;;21.00;50.40;;;;;;4247225;28;20264;-78
2022/07/16 11:22:40;;;;;;;3.30;0.93;;;21.10;49.40;;;;;;4238095;28;20219;-81
2022/07/16 11:24:47;;;;;;;1.20;0.70;;;21.20;48.40;;;;;;4246664;28;20560;-79
2022/07/16 11:26:51;;;;;;;1.87;0.80;;;21.30;47.20;;;;;;4224710;28;20247;-76
2022/07/16 11:28:55;;;;;;;0.70;0.63;;;21.30;46.60;;;;;;4242915;27;20771;-78
2022/07/16 11:31:04;;;;;;;1.80;0.90;;;21.50;45.50;;;;;;4234236;28;20201;-78
2022/07/16 11:33:07;;;;;;;0.93;0.70;;;21.60;45.00;;;;;;4228315;28;20633;-76
2022/07/16 11:35:10;;;;;;;3.37;1.03;;;21.80;43.60;;;;;;4241346;28;20256;-76
2022/07/16 11:37:12;;;;;;;2.07;0.97;;;22.00;43.90;;;;;;4217537;28;20249;-76
2022/07/16 11:39:16;;;;;;;4.00;0.90;;;22.20;43.10;;;;;;4240171;28;20244;-76
2022/07/16 11:41:19;;;;;;;1.03;0.87;;;22.30;42.80;;;;;;4245973;27;20619;-77
2022/07/16 11:43:28;;;;;;;1.63;0.77;;;22.20;42.10;;;;;;4224266;28;20204;-76
2022/07/16 11:45:40;;;;;;;1.30;0.80;;;22.10;42.10;;;;;;4244419;27;20672;-76
2022/07/16 11:47:42;;;;;;;0.90;0.80;;;22.10;42.20;;;;;;4240693;27;20316;-76
2022/07/16 11:49:46;;;;;;;1.00;0.90;;;22.20;42.60;;;;;;4225731;28;20293;-78
2022/07/16 11:51:48;;;;;;;1.23;0.70;;;22.30;42.00;;;;;;4247197;27;20230;-76
2022/07/16 11:53:50;;;;;;;1.00;0.90;;;22.50;41.90;;;;;;4237556;27;20207;-79
2022/07/16 11:55:53;;;;;;;2.17;1.03;;;22.70;41.60;;;;;;4237904;27;20203;-76
2022/07/16 11:57:55;;;;;;;1.63;1.10;;;22.80;40.20;;;;;;4234900;27;20227;-79
2022/07/16 11:59:57;;;;;;;3.57;0.80;;;22.80;40.40;;;;;;4240013;27;20219;-77
2022/07/16 12:02:01;;;;;;;1.50;1.00;;;23.10;40.80;;;;;;4229160;28;20514;-77
2022/07/16 12:04:03;;;;;;;2.77;1.00;;;23.30;39.80;;;;;;4221028;28;20299;-78
2022/07/16 12:06:08;;;;;;;1.27;0.80;;;23.60;38.70;;;;;;4243742;27;20251;-77
2022/07/16 12:08:11;;;;;;;1.87;0.80;;;23.80;38.40;;;;;;4244820;27;20227;-75
2022/07/16 12:10:13;;;;;;;0.87;0.73;;;24.00;37.90;;;;;;4240574;27;20296;-76
2022/07/16 12:12:20;;;;;;;1.57;0.80;;;24.10;37.20;;;;;;4226697;28;20204;-76
2022/07/16 12:14:22;;;;;;;3.23;1.00;;;24.10;37.10;;;;;;4235923;27;20223;-78
2022/07/16 12:16:24;;;;;;;1.00;0.90;;;24.20;36.70;;;;;;4219963;28;20208;-76
2022/07/16 12:18:27;;;;;;;2.40;1.10;;;24.20;36.20;;;;;;4244767;27;20219;-78
2022/07/16 12:20:29;;;;;;;2.50;0.90;;;24.20;35.70;;;;;;4244710;27;20204;-77
2022/07/16 12:22:51;;;;;;;1.23;0.90;;;24.10;35.40;;;;;;4245771;27;20208;-78
2022/07/16 12:24:52;;;;;;;1.23;0.90;;;24.20;35.90;;;;;;4244038;27;20214;-81
2022/07/16 12:26:54;;;;;;;1.87;0.90;;;24.20;38.40;;;;;;4241962;27;20584;-79
2022/07/16 12:28:57;;;;;;;1.97;0.83;;;24.40;39.90;;;;;;4243323;27;20224;-81
2022/07/16 12:31:00;;;;;;;3.70;1.00;;;24.60;42.20;;;;;;4248373;27;20290;-80
2022/07/16 12:33:02;;;;;;;1.43;1.00;;;24.90;43.10;;;;;;4248673;27;20226;-80
2022/07/16 12:35:05;;;;;;;1.50;0.80;;;25.10;43.20;;;;;;4243364;27;20208;-80
2022/07/16 12:37:13;;;;;;;2.93;1.30;;;25.20;43.30;;;;;;4251908;27;20225;-81
2022/07/16 12:39:21;;;;;;;2.10;1.00;;;25.30;43.90;;;;;;4244684;27;20635;-78
2022/07/16 12:41:26;;;;;;;1.53;0.97;;;25.60;43.20;;;;;;4230080;28;20231;-78
2022/07/16 12:43:28;;;;;;;1.87;0.90;;;25.80;42.40;;;;;;4248540;27;20212;-79
2022/07/16 12:45:30;;;;;;;3.13;0.83;;;26.00;41.10;;;;;;4226905;28;20208;-81
2022/07/16 12:47:32;;;;;;;2.67;0.80;;;26.00;40.10;;;;;;4230353;28;20200;-79
2022/07/16 12:49:34;;;;;;;1.47;0.80;;;26.10;38.70;;;;;;4214194;28;20233;-79
2022/07/16 12:51:39;;;;;;;4.17;0.90;;;26.00;38.30;;;;;;4231115;28;20208;-80
2022/07/16 12:53:41;;;;;;;4.13;1.00;;;26.10;38.60;;;;;;4248117;27;20196;-80
2022/07/16 13:00:26;;;;;;;2.97;1.10;;;25.80;37.80;;;;;;4241997;27;20192;-77
2022/07/16 13:02:28;;;;;;;2.40;0.80;;;25.70;37.70;;;;;;4247837;27;20199;-78
2022/07/16 13:04:30;;;;;;;3.80;1.10;;;25.70;37.30;;;;;;4224639;28;20230;-77
2022/07/16 13:06:33;;;;;;;1.33;0.90;;;25.40;37.30;;;;;;4244312;27;20220;-77
2022/07/16 13:08:36;;;;;;;3.27;1.27;;;25.10;37.20;;;;;;4225094;28;20237;-77
2022/07/16 13:10:40;;;;;;;3.13;1.20;;;25.20;37.80;;;;;;4240930;27;20273;-77
2022/07/16 13:12:44;;;;;;;1.63;0.97;;;25.30;38.10;;;;;;4222269;28;20205;-78
2022/07/16 13:14:46;;;;;;;1.93;0.87;;;25.60;38.10;;;;;;4223444;28;20589;-78
2022/07/16 13:16:49;;;;;;;2.07;0.90;;;26.00;37.60;;;;;;4240079;27;20196;-77